Topgun 80 — WDG6294 — position and weather

sailwx.info

Track history (hours):
 
Tides and Currents Weather Stations Pressure Air Temp Water Temp Dewpoint Dewpoint Depression Visibility Wind Speed Wind Dir Waves Ship Positions

Topgun 80

Owner: TopGun 80 Inc., San Diego, CA. More information available from US FCC via Universal Licensing System and Coast Guard Vessel Documentation Center.

Last reported at 2017-Sep-24 13:39 UTC. Time now 2017-Sep-24 14:09 UTC.
Position N 32°46' W 118°25'.

Type: Passenger vessel. MMSI: 368437000.

Date/timePositionNaut miles runAvg speedWind from/ knotsBaromVisibWave heightAir tempDewpointWater temp
2017-Sep-24 13:39N 32°46' W 118°25'0 0.0
2017-Sep-24 13:30N 32°46' W 118°25'1 1.0
2017-Sep-24 13:00N 32°46' W 118°24'510.0
2017-Sep-24 12:30N 32°45' W 118°18'1610.2
2017-Sep-24 10:59N 32°44' W 117°60'510.1
2017-Sep-24 10:30N 32°43' W 117°54'510.2
2017-Sep-24 09:59N 32°42' W 117°48'510.3
2017-Sep-24 09:30N 32°42' W 117°42'510.4
2017-Sep-24 09:00N 32°41' W 117°36'510.6
2017-Sep-24 08:30N 32°40' W 117°30'510.3
2017-Sep-24 08:00N 32°39' W 117°24'810.0
2017-Sep-24 07:12N 32°39' W 117°14'2 9.7
2017-Sep-24 07:00N 32°40' W 117°14'1 2.5
2017-Sep-24 06:30N 32°42' W 117°14'3 5.7
2017-Sep-24 06:00N 32°39' W 117°14'5 9.7
2017-Sep-24 05:30N 32°34' W 117°15'5 9.5
2017-Sep-24 05:00N 32°29' W 117°16'5 9.1
2017-Sep-24 04:30N 32°25' W 117°17'19 0.4
2017-Sep-22 02:00N 32°43' W 117°14'0 0.0
2017-Sep-22 01:29N 32°43' W 117°14'0 0.0
2017-Sep-22 01:01N 32°43' W 117°14'0 0.0
2017-Sep-22 00:31N 32°43' W 117°14'1 0.0
2017-Sep-21 11:58N 32°43' W 117°13'0 0.6
2017-Sep-21 11:30N 32°43' W 117°13'0 0.0
2017-Sep-21 10:59N 32°43' W 117°13'1 2.1
2017-Sep-21 10:31N 32°43' W 117°13'4 8.1
2017-Sep-21 10:00N 32°39' W 117°15'4 8.5
2017-Sep-21 09:30N 32°39' W 117°20'5 9.6
2017-Sep-21 09:00N 32°39' W 117°25'5 9.3
2017-Sep-21 08:30N 32°39' W 117°31'5 9.3
2017-Sep-21 08:00N 32°39' W 117°36'5 9.6
2017-Sep-21 07:30N 32°40' W 117°42'5 9.8
2017-Sep-21 07:00N 32°40' W 117°48'5 9.7
2017-Sep-21 06:30N 32°40' W 117°54'5 9.3
2017-Sep-21 06:00N 32°40' W 117°59'5 9.3
2017-Sep-21 05:30N 32°41' W 118°05'5 9.5
2017-Sep-21 05:00N 32°41' W 118°10'5 9.6
2017-Sep-21 04:30N 32°42' W 118°16'6 9.6
2017-Sep-21 03:50N 32°42' W 118°24'3 9.7
2017-Sep-21 03:29N 32°42' W 118°28'7 1.3
2017-Sep-20 21:47N 32°35' W 118°32'6 5.4
2017-Sep-20 20:44N 32°38' W 118°38'32 2.8
2017-Sep-20 09:40N 32°46' W 118°02'2 9.7
2017-Sep-20 09:29N 32°46' W 118°00'5 9.8
2017-Sep-20 09:01N 32°45' W 117°55'5 9.8
2017-Sep-20 08:30N 32°44' W 117°49'5 9.7
2017-Sep-20 08:00N 32°43' W 117°43'5 9.7
2017-Sep-20 07:31N 32°42' W 117°38'510.0
2017-Sep-20 07:01N 32°41' W 117°32'5 9.8
2017-Sep-20 06:30N 32°40' W 117°26'5 9.4
2017-Sep-20 06:00N 32°40' W 117°20'5 9.2
2017-Sep-20 05:27N 32°39' W 117°15'3 6.6
2017-Sep-20 05:00N 32°42' W 117°14'0 0.1
2017-Sep-20 04:30N 32°42' W 117°14'4 8.6
2017-Sep-20 04:00N 32°37' W 117°14'5 9.5
2017-Sep-20 03:30N 32°33' W 117°16'5 9.8
2017-Sep-20 02:59N 32°28' W 117°18'6 9.7
2017-Sep-20 02:23N 32°23' W 117°20'14 9.0
2017-Sep-20 00:50N 32°09' W 117°23'8 0.3
2017-Sep-18 20:09N 32°13' W 117°31'9 2.3
2017-Sep-18 16:19N 32°04' W 117°31'37 3.1
2017-Sep-18 04:27N 32°38' W 117°15'4 8.1
2017-Sep-18 03:58N 32°42' W 117°14'0 0.1
2017-Sep-18 03:30N 32°42' W 117°14'0 0.0
2017-Sep-18 03:01N 32°42' W 117°14'2 3.5
2017-Sep-18 02:30N 32°43' W 117°13'0 0.5
2017-Sep-18 02:00N 32°43' W 117°14'0 0.0
2017-Sep-18 01:30N 32°43' W 117°14'0 0.0
2017-Sep-18 01:00N 32°43' W 117°14'0 0.0
2017-Sep-17 12:37N 32°43' W 117°14'0 0.1
2017-Sep-17 12:30N 32°43' W 117°14'1 0.9
2017-Sep-17 11:23N 32°43' W 117°12'0 0.0
2017-Sep-17 10:53N 32°43' W 117°12'0 0.0
2017-Sep-17 10:26N 32°43' W 117°12'0 0.0
2017-Sep-17 09:57N 32°43' W 117°12'0 0.0
2017-Sep-17 09:28N 32°43' W 117°12'0 0.7
2017-Sep-17 09:00N 32°43' W 117°13'4 8.4
2017-Sep-17 08:30N 32°39' W 117°14'4 8.7
2017-Sep-17 08:00N 32°38' W 117°19'5 9.5
2017-Sep-17 07:30N 32°39' W 117°24'5 9.4
2017-Sep-17 07:00N 32°41' W 117°30'5 9.5
2017-Sep-17 06:30N 32°42' W 117°35'5 9.6
2017-Sep-17 06:00N 32°43' W 117°41'5 9.6
2017-Sep-17 05:30N 32°44' W 117°46'5 9.4
2017-Sep-17 05:00N 32°45' W 117°52'5 9.4
2017-Sep-17 04:30N 32°45' W 117°57'5 9.5
2017-Sep-17 04:00N 32°46' W 118°03'5 9.2
2017-Sep-17 03:30N 32°47' W 118°08'5 9.1
2017-Sep-17 03:00N 32°48' W 118°13'5 9.2
2017-Sep-17 02:27N 32°49' W 118°19'1 0.4
2017-Sep-16 23:50N 32°49' W 118°21'2 6.2
2017-Sep-16 23:30N 32°51' W 118°22'1 1.3
2017-Sep-16 22:39N 32°51' W 118°23'0 0.0
2017-Sep-16 22:30N 32°51' W 118°23'2 4.2
2017-Sep-16 22:00N 32°53' W 118°25'2 3.6
2017-Sep-16 21:28N 32°54' W 118°27'0 0.1
2017-Sep-16 21:00N 32°54' W 118°27'3 3.7
2017-Sep-16 20:14N 32°56' W 118°30'1 2.0
2017-Sep-16 19:55N 32°56' W 118°29'4 8.1
2017-Sep-16 19:28N 32°53' W 118°26'2 3.8
2017-Sep-16 19:00N 32°54' W 118°27'0 0.0
2017-Sep-16 18:30N 32°54' W 118°27'0 0.0
2017-Sep-16 17:54N 32°54' W 118°27'0 0.0
2017-Sep-16 17:27N 32°54' W 118°27'0 0.0
2017-Sep-16 16:56N 32°54' W 118°27'0 0.0
2017-Sep-16 16:28N 32°54' W 118°27'0 0.1
2017-Sep-16 15:59N 32°54' W 118°27'2 2.7
2017-Sep-16 15:15N 32°55' W 118°29'0 0.0
2017-Sep-16 14:43N 32°55' W 118°29'1 2.0
2017-Sep-16 14:25N 32°55' W 118°28'2 5.9
2017-Sep-16 14:00N 32°54' W 118°26'0 0.0
2017-Sep-16 13:30N 32°54' W 118°26'0 0.0
2017-Sep-16 13:00N 32°54' W 118°26'0 0.0
2017-Sep-16 12:30N 32°54' W 118°26'0 0.0
2017-Sep-16 12:00N 32°54' W 118°26'0 0.0
2017-Sep-16 11:30N 32°54' W 118°26'0 0.0
2017-Sep-16 11:00N 32°54' W 118°26'0 0.0
2017-Sep-16 10:30N 32°54' W 118°26'0 0.0
2017-Sep-16 10:00N 32°54' W 118°26'0 0.0
2017-Sep-16 09:30N 32°54' W 118°26'0 0.0
2017-Sep-16 09:00N 32°54' W 118°26'0 0.0
2017-Sep-16 08:30N 32°54' W 118°26'0 0.0
2017-Sep-16 08:00N 32°54' W 118°26'0 0.0
2017-Sep-16 07:30N 32°54' W 118°26'0 0.0
2017-Sep-16 07:00N 32°54' W 118°26'21 8.6
2017-Sep-16 04:35N 32°42' W 118°06'2 8.7
2017-Sep-16 04:23N 32°41' W 118°04'5 8.9
2017-Sep-16 03:50N 32°38' W 117°59'3 8.6
2017-Sep-16 03:27N 32°36' W 117°56'4 8.6
2017-Sep-16 03:00N 32°34' W 117°52'6 8.7
2017-Sep-16 02:16N 32°31' W 117°46'3 8.7
2017-Sep-16 01:56N 32°29' W 117°43'7 8.9
2017-Sep-16 01:08N 32°25' W 117°36'1 5.4
2017-Sep-16 01:00N 32°25' W 117°35'3 6.6
2017-Sep-16 00:30N 32°28' W 117°37'2 3.6
2017-Sep-16 00:00N 32°29' W 117°36'3 6.0
2017-Sep-15 23:30N 32°28' W 117°39'3 5.4
2017-Sep-15 22:59N 32°26' W 117°38'0 0.6
2017-Sep-15 22:30N 32°26' W 117°38'3 6.7
2017-Sep-15 22:00N 32°28' W 117°41'2 4.7
2017-Sep-15 21:31N 32°30' W 117°40'3 6.3
2017-Sep-15 20:59N 32°28' W 117°37'11 7.5
2017-Sep-15 19:34N 32°19' W 117°29'0 2.3
2017-Sep-15 19:28N 32°19' W 117°29'3 7.5
2017-Sep-15 19:00N 32°17' W 117°33'2 2.6
2017-Sep-15 18:21N 32°18' W 117°35'2 4.7
2017-Sep-15 17:53N 32°17' W 117°37'4 1.7
2017-Sep-15 15:36N 32°15' W 117°33'1 0.9
2017-Sep-15 14:25N 32°16' W 117°34'2 4.5
2017-Sep-15 13:52N 32°18' W 117°34'0 0.3
2017-Sep-15 13:31N 32°18' W 117°34'0 0.3
2017-Sep-15 12:57N 32°18' W 117°34'0 0.3
2017-Sep-15 12:30N 32°18' W 117°35'0 0.3
2017-Sep-15 12:00N 32°18' W 117°35'0 0.2
2017-Sep-15 11:28N 32°18' W 117°35'0 0.1
2017-Sep-15 10:58N 32°18' W 117°35'2 0.5
2017-Sep-15 07:16N 32°19' W 117°37'10 9.7
2017-Sep-15 06:13N 32°26' W 117°29'1610.1
2017-Sep-15 04:36N 32°38' W 117°15'1 9.5
2017-Sep-15 04:30N 32°38' W 117°14'3 6.9
2017-Sep-15 04:01N 32°42' W 117°14'0 0.1
2017-Sep-15 03:31N 32°42' W 117°14'2 3.5
2017-Sep-15 03:00N 32°43' W 117°14'0 0.0
2017-Sep-15 02:30N 32°43' W 117°14'0 0.0
2017-Sep-15 02:00N 32°43' W 117°14'0 0.0
2017-Sep-15 01:30N 32°43' W 117°14'  
Track history (hours):
 
Tides and Currents Weather Stations Pressure Air Temp Water Temp Dewpoint Dewpoint Depression Visibility Wind Speed Wind Dir Waves Ship Positions

Topgun 80

Owner: TopGun 80 Inc., San Diego, CA. More information available from US FCC via Universal Licensing System and Coast Guard Vessel Documentation Center.

Last reported at 2017-Sep-24 13:39 UTC. Time now 2017-Sep-24 14:09 UTC.
Position N 32°46' W 118°25'.

Type: Passenger vessel. MMSI: 368437000.

Date/timePositionNaut miles runAvg speedWind from/ knotsBaromVisibWave heightAir tempDewpointWater temp
2017-Sep-24 13:39N 32°46' W 118°25'0 0.0
2017-Sep-24 13:30N 32°46' W 118°25'1 1.0
2017-Sep-24 13:00N 32°46' W 118°24'510.0
2017-Sep-24 12:30N 32°45' W 118°18'1610.2
2017-Sep-24 10:59N 32°44' W 117°60'510.1
2017-Sep-24 10:30N 32°43' W 117°54'510.2
2017-Sep-24 09:59N 32°42' W 117°48'510.3
2017-Sep-24 09:30N 32°42' W 117°42'510.4
2017-Sep-24 09:00N 32°41' W 117°36'510.6
2017-Sep-24 08:30N 32°40' W 117°30'510.3
2017-Sep-24 08:00N 32°39' W 117°24'810.0
2017-Sep-24 07:12N 32°39' W 117°14'2 9.7
2017-Sep-24 07:00N 32°40' W 117°14'1 2.5
2017-Sep-24 06:30N 32°42' W 117°14'3 5.7
2017-Sep-24 06:00N 32°39' W 117°14'5 9.7
2017-Sep-24 05:30N 32°34' W 117°15'5 9.5
2017-Sep-24 05:00N 32°29' W 117°16'5 9.1
2017-Sep-24 04:30N 32°25' W 117°17'19 0.4
2017-Sep-22 02:00N 32°43' W 117°14'0 0.0
2017-Sep-22 01:29N 32°43' W 117°14'0 0.0
2017-Sep-22 01:01N 32°43' W 117°14'0 0.0
2017-Sep-22 00:31N 32°43' W 117°14'1 0.0
2017-Sep-21 11:58N 32°43' W 117°13'0 0.6
2017-Sep-21 11:30N 32°43' W 117°13'0 0.0
2017-Sep-21 10:59N 32°43' W 117°13'1 2.1
2017-Sep-21 10:31N 32°43' W 117°13'4 8.1
2017-Sep-21 10:00N 32°39' W 117°15'4 8.5
2017-Sep-21 09:30N 32°39' W 117°20'5 9.6
2017-Sep-21 09:00N 32°39' W 117°25'5 9.3
2017-Sep-21 08:30N 32°39' W 117°31'5 9.3
2017-Sep-21 08:00N 32°39' W 117°36'5 9.6
2017-Sep-21 07:30N 32°40' W 117°42'5 9.8
2017-Sep-21 07:00N 32°40' W 117°48'5 9.7
2017-Sep-21 06:30N 32°40' W 117°54'5 9.3
2017-Sep-21 06:00N 32°40' W 117°59'5 9.3
2017-Sep-21 05:30N 32°41' W 118°05'5 9.5
2017-Sep-21 05:00N 32°41' W 118°10'5 9.6
2017-Sep-21 04:30N 32°42' W 118°16'6 9.6
2017-Sep-21 03:50N 32°42' W 118°24'3 9.7
2017-Sep-21 03:29N 32°42' W 118°28'7 1.3
2017-Sep-20 21:47N 32°35' W 118°32'6 5.4
2017-Sep-20 20:44N 32°38' W 118°38'32 2.8
2017-Sep-20 09:40N 32°46' W 118°02'2 9.7
2017-Sep-20 09:29N 32°46' W 118°00'5 9.8
2017-Sep-20 09:01N 32°45' W 117°55'5 9.8
2017-Sep-20 08:30N 32°44' W 117°49'5 9.7
2017-Sep-20 08:00N 32°43' W 117°43'5 9.7
2017-Sep-20 07:31N 32°42' W 117°38'510.0
2017-Sep-20 07:01N 32°41' W 117°32'5 9.8
2017-Sep-20 06:30N 32°40' W 117°26'5 9.4
2017-Sep-20 06:00N 32°40' W 117°20'5 9.2
2017-Sep-20 05:27N 32°39' W 117°15'3 6.6
2017-Sep-20 05:00N 32°42' W 117°14'0 0.1
2017-Sep-20 04:30N 32°42' W 117°14'4 8.6
2017-Sep-20 04:00N 32°37' W 117°14'5 9.5
2017-Sep-20 03:30N 32°33' W 117°16'5 9.8
2017-Sep-20 02:59N 32°28' W 117°18'6 9.7
2017-Sep-20 02:23N 32°23' W 117°20'14 9.0
2017-Sep-20 00:50N 32°09' W 117°23'8 0.3
2017-Sep-18 20:09N 32°13' W 117°31'9 2.3
2017-Sep-18 16:19N 32°04' W 117°31'37 3.1
2017-Sep-18 04:27N 32°38' W 117°15'4 8.1
2017-Sep-18 03:58N 32°42' W 117°14'0 0.1
2017-Sep-18 03:30N 32°42' W 117°14'0 0.0
2017-Sep-18 03:01N 32°42' W 117°14'2 3.5
2017-Sep-18 02:30N 32°43' W 117°13'0 0.5
2017-Sep-18 02:00N 32°43' W 117°14'0 0.0
2017-Sep-18 01:30N 32°43' W 117°14'0 0.0
2017-Sep-18 01:00N 32°43' W 117°14'0 0.0
2017-Sep-17 12:37N 32°43' W 117°14'0 0.1
2017-Sep-17 12:30N 32°43' W 117°14'1 0.9
2017-Sep-17 11:23N 32°43' W 117°12'0 0.0
2017-Sep-17 10:53N 32°43' W 117°12'0 0.0
2017-Sep-17 10:26N 32°43' W 117°12'0 0.0
2017-Sep-17 09:57N 32°43' W 117°12'0 0.0
2017-Sep-17 09:28N 32°43' W 117°12'0 0.7
2017-Sep-17 09:00N 32°43' W 117°13'4 8.4
2017-Sep-17 08:30N 32°39' W 117°14'4 8.7
2017-Sep-17 08:00N 32°38' W 117°19'5 9.5
2017-Sep-17 07:30N 32°39' W 117°24'5 9.4
2017-Sep-17 07:00N 32°41' W 117°30'5 9.5
2017-Sep-17 06:30N 32°42' W 117°35'5 9.6
2017-Sep-17 06:00N 32°43' W 117°41'5 9.6
2017-Sep-17 05:30N 32°44' W 117°46'5 9.4
2017-Sep-17 05:00N 32°45' W 117°52'5 9.4
2017-Sep-17 04:30N 32°45' W 117°57'5 9.5
2017-Sep-17 04:00N 32°46' W 118°03'5 9.2
2017-Sep-17 03:30N 32°47' W 118°08'5 9.1
2017-Sep-17 03:00N 32°48' W 118°13'5 9.2
2017-Sep-17 02:27N 32°49' W 118°19'1 0.4
2017-Sep-16 23:50N 32°49' W 118°21'2 6.2
2017-Sep-16 23:30N 32°51' W 118°22'1 1.3
2017-Sep-16 22:39N 32°51' W 118°23'0 0.0
2017-Sep-16 22:30N 32°51' W 118°23'2 4.2
2017-Sep-16 22:00N 32°53' W 118°25'2 3.6
2017-Sep-16 21:28N 32°54' W 118°27'0 0.1
2017-Sep-16 21:00N 32°54' W 118°27'3 3.7
2017-Sep-16 20:14N 32°56' W 118°30'1 2.0
2017-Sep-16 19:55N 32°56' W 118°29'4 8.1
2017-Sep-16 19:28N 32°53' W 118°26'2 3.8
2017-Sep-16 19:00N 32°54' W 118°27'0 0.0
2017-Sep-16 18:30N 32°54' W 118°27'0 0.0
2017-Sep-16 17:54N 32°54' W 118°27'0 0.0
2017-Sep-16 17:27N 32°54' W 118°27'0 0.0
2017-Sep-16 16:56N 32°54' W 118°27'0 0.0
2017-Sep-16 16:28N 32°54' W 118°27'0 0.1
2017-Sep-16 15:59N 32°54' W 118°27'2 2.7
2017-Sep-16 15:15N 32°55' W 118°29'0 0.0
2017-Sep-16 14:43N 32°55' W 118°29'1 2.0
2017-Sep-16 14:25N 32°55' W 118°28'2 5.9
2017-Sep-16 14:00N 32°54' W 118°26'0 0.0
2017-Sep-16 13:30N 32°54' W 118°26'0 0.0
2017-Sep-16 13:00N 32°54' W 118°26'0 0.0
2017-Sep-16 12:30N 32°54' W 118°26'0 0.0
2017-Sep-16 12:00N 32°54' W 118°26'0 0.0
2017-Sep-16 11:30N 32°54' W 118°26'0 0.0
2017-Sep-16 11:00N 32°54' W 118°26'0 0.0
2017-Sep-16 10:30N 32°54' W 118°26'0 0.0
2017-Sep-16 10:00N 32°54' W 118°26'0 0.0
2017-Sep-16 09:30N 32°54' W 118°26'0 0.0
2017-Sep-16 09:00N 32°54' W 118°26'0 0.0
2017-Sep-16 08:30N 32°54' W 118°26'0 0.0
2017-Sep-16 08:00N 32°54' W 118°26'0 0.0
2017-Sep-16 07:30N 32°54' W 118°26'0 0.0
2017-Sep-16 07:00N 32°54' W 118°26'21 8.6
2017-Sep-16 04:35N 32°42' W 118°06'2 8.7
2017-Sep-16 04:23N 32°41' W 118°04'5 8.9
2017-Sep-16 03:50N 32°38' W 117°59'3 8.6
2017-Sep-16 03:27N 32°36' W 117°56'4 8.6
2017-Sep-16 03:00N 32°34' W 117°52'6 8.7
2017-Sep-16 02:16N 32°31' W 117°46'3 8.7
2017-Sep-16 01:56N 32°29' W 117°43'7 8.9
2017-Sep-16 01:08N 32°25' W 117°36'1 5.4
2017-Sep-16 01:00N 32°25' W 117°35'3 6.6
2017-Sep-16 00:30N 32°28' W 117°37'2 3.6
2017-Sep-16 00:00N 32°29' W 117°36'3 6.0
2017-Sep-15 23:30N 32°28' W 117°39'3 5.4
2017-Sep-15 22:59N 32°26' W 117°38'0 0.6
2017-Sep-15 22:30N 32°26' W 117°38'3 6.7
2017-Sep-15 22:00N 32°28' W 117°41'2 4.7
2017-Sep-15 21:31N 32°30' W 117°40'3 6.3
2017-Sep-15 20:59N 32°28' W 117°37'11 7.5
2017-Sep-15 19:34N 32°19' W 117°29'0 2.3
2017-Sep-15 19:28N 32°19' W 117°29'3 7.5
2017-Sep-15 19:00N 32°17' W 117°33'2 2.6
2017-Sep-15 18:21N 32°18' W 117°35'2 4.7
2017-Sep-15 17:53N 32°17' W 117°37'4 1.7
2017-Sep-15 15:36N 32°15' W 117°33'1 0.9
2017-Sep-15 14:25N 32°16' W 117°34'2 4.5
2017-Sep-15 13:52N 32°18' W 117°34'0 0.3
2017-Sep-15 13:31N 32°18' W 117°34'0 0.3
2017-Sep-15 12:57N 32°18' W 117°34'0 0.3
2017-Sep-15 12:30N 32°18' W 117°35'0 0.3
2017-Sep-15 12:00N 32°18' W 117°35'0 0.2
2017-Sep-15 11:28N 32°18' W 117°35'0 0.1
2017-Sep-15 10:58N 32°18' W 117°35'2 0.5
2017-Sep-15 07:16N 32°19' W 117°37'10 9.7
2017-Sep-15 06:13N 32°26' W 117°29'1610.1
2017-Sep-15 04:36N 32°38' W 117°15'1 9.5
2017-Sep-15 04:30N 32°38' W 117°14'3 6.9
2017-Sep-15 04:01N 32°42' W 117°14'0 0.1
2017-Sep-15 03:31N 32°42' W 117°14'2 3.5
2017-Sep-15 03:00N 32°43' W 117°14'0 0.0
2017-Sep-15 02:30N 32°43' W 117°14'0 0.0
2017-Sep-15 02:00N 32°43' W 117°14'0 0.0
2017-Sep-15 01:30N 32°43' W 117°14'  

Dump ship's entire track history